createdAt,value
2023-04-25T00:00:08.745Z,6.4
2023-04-25T00:05:08.387Z,6.4
2023-04-25T00:10:08.549Z,6.4
2023-04-25T00:15:08.606Z,6.4
2023-04-25T00:20:08.609Z,6.4
2023-04-25T00:25:08.622Z,6.4
2023-04-25T00:30:08.674Z,6.1
2023-04-25T00:35:08.737Z,6.1
2023-04-25T00:40:08.823Z,6.1
2023-04-25T00:45:08.861Z,6.1
2023-04-25T00:50:08.928Z,6.0
2023-04-25T00:55:09.027Z,6.0
2023-04-25T01:00:08.041Z,6.1
2023-04-25T01:05:08.810Z,6.1
2023-04-25T01:10:08.832Z,6.0
2023-04-25T01:15:08.935Z,6.0
2023-04-25T01:20:07.978Z,6.0
2023-04-25T01:25:08.004Z,6.0
2023-04-25T01:30:08.023Z,6.0
2023-04-25T01:35:08.065Z,6.0
2023-04-25T01:40:08.113Z,6.0
2023-04-25T01:45:08.185Z,6.0
2023-04-25T01:50:08.221Z,6.0
2023-04-25T01:55:08.276Z,6.0
2023-04-25T02:00:08.299Z,6.0
2023-04-25T02:05:08.357Z,6.0
2023-04-25T02:10:08.435Z,6.0
2023-04-25T02:15:08.562Z,5.9
2023-04-25T02:20:08.634Z,5.9
2023-04-25T02:25:08.686Z,5.9
2023-04-25T02:30:08.753Z,5.9
2023-04-25T02:35:08.817Z,5.9
2023-04-25T02:40:08.902Z,5.8
2023-04-25T02:45:08.948Z,5.8
2023-04-25T02:50:08.031Z,5.8
2023-04-25T02:55:08.041Z,5.8
2023-04-25T03:00:08.121Z,5.8
2023-04-25T03:05:08.145Z,5.5
2023-04-25T03:10:08.200Z,5.5
2023-04-25T03:15:08.346Z,5.3
2023-04-25T03:20:08.457Z,5.3
2023-04-25T03:25:08.483Z,5.3
2023-04-25T03:30:08.529Z,5.3
2023-04-25T03:35:08.566Z,5.0
2023-04-25T03:40:08.775Z,5.0
2023-04-25T03:45:08.847Z,4.8
2023-04-25T03:50:08.870Z,4.8
2023-04-25T03:55:08.904Z,4.5
2023-04-25T04:00:08.945Z,4.5
2023-04-25T04:05:02.713Z,4.5
2023-04-25T04:10:03.023Z,4.5
2023-04-25T04:15:02.245Z,4.5
2023-04-25T04:20:02.318Z,4.3
2023-04-25T04:25:02.498Z,4.3
2023-04-25T04:30:02.775Z,4.5
2023-04-25T04:35:02.945Z,4.5
2023-04-25T04:40:02.088Z,4.5
2023-04-25T04:45:02.228Z,4.5
2023-04-25T04:50:02.340Z,4.5
2023-04-25T04:55:02.476Z,4.5
2023-04-25T05:00:02.617Z,4.5
2023-04-25T05:05:02.786Z,4.3
2023-04-25T05:10:02.880Z,4.5
2023-04-25T05:15:03.037Z,4.5
2023-04-25T05:20:02.336Z,5.0
2023-04-25T05:25:02.462Z,5.3
2023-04-25T05:30:02.642Z,5.3
2023-04-25T05:35:02.985Z,5.3
2023-04-25T05:40:02.150Z,5.4
2023-04-25T05:45:02.330Z,5.4
2023-04-25T05:50:02.617Z,5.4
2023-04-25T05:55:02.783Z,5.5
2023-04-25T06:00:02.909Z,5.5
2023-04-25T06:05:03.241Z,5.5
2023-04-25T06:10:02.597Z,5.8
2023-04-25T06:15:04.729Z,5.8
2023-04-25T06:20:02.738Z,6.0
2023-04-25T06:25:02.756Z,6.0
2023-04-25T06:30:02.959Z,6.1
2023-04-25T06:35:02.128Z,6.1
2023-04-25T06:40:02.245Z,6.1
2023-04-25T06:45:02.408Z,6.1
2023-04-25T06:50:02.516Z,6.4
2023-04-25T06:55:02.668Z,6.1
2023-04-25T07:00:02.842Z,6.4
2023-04-25T07:05:03.060Z,6.5
2023-04-25T07:10:02.274Z,6.9
2023-04-25T07:15:02.368Z,7.1
2023-04-25T07:20:02.550Z,7.5
2023-04-25T07:25:02.655Z,7.4
2023-04-25T07:30:02.822Z,7.4
2023-04-25T07:35:03.149Z,7.9
2023-04-25T07:40:02.346Z,7.9
2023-04-25T07:45:02.588Z,8.3
2023-04-25T07:50:02.714Z,8.3
2023-04-25T07:55:02.880Z,8.1
2023-04-25T08:00:03.087Z,8.1
2023-04-25T08:05:02.419Z,8.1
2023-04-25T08:10:02.621Z,9.8
2023-04-25T08:15:02.813Z,9.8
2023-04-25T08:20:03.027Z,8.8
2023-04-25T08:25:02.243Z,8.8
2023-04-25T08:30:02.391Z,10.3
2023-04-25T08:35:02.517Z,10.3
2023-04-25T08:40:02.653Z,10.3
2023-04-25T08:45:04.472Z,11.0
2023-04-25T08:50:03.110Z,11.0
2023-04-25T08:55:02.215Z,11.0
2023-04-25T09:00:02.348Z,11.0
2023-04-25T09:05:02.558Z,11.3
2023-04-25T09:10:02.718Z,11.3
2023-04-25T09:15:02.894Z,9.8
2023-04-25T09:20:03.107Z,6.9
2023-04-25T09:25:02.237Z,6.4
2023-04-25T09:30:02.473Z,6.5
2023-04-25T09:35:02.581Z,7.4
2023-04-25T09:40:02.780Z,7.1
2023-04-25T09:45:02.124Z,7.1
2023-04-25T09:50:02.303Z,7.5
2023-04-25T09:55:02.513Z,8.1
2023-04-25T10:00:02.731Z,8.8
2023-04-25T10:05:02.904Z,9.3
2023-04-25T10:10:02.113Z,9.3
2023-04-25T10:15:02.397Z,9.8
2023-04-25T10:20:02.558Z,11.3
2023-04-25T10:25:02.752Z,11.3
2023-04-25T10:30:02.845Z,12.6
2023-04-25T10:35:02.978Z,12.6
2023-04-25T10:40:02.190Z,13.6
2023-04-25T10:45:02.321Z,13.6
2023-04-25T10:50:02.543Z,11.3
2023-04-25T10:55:02.678Z,10.1
2023-04-25T11:00:02.803Z,9.1
2023-04-25T11:05:03.072Z,9.0
2023-04-25T11:10:02.223Z,9.3
2023-04-25T11:15:02.391Z,10.1
2023-04-25T11:20:02.572Z,10.8
2023-04-25T11:25:02.739Z,10.8
2023-04-25T11:30:02.893Z,10.3
2023-04-25T11:35:03.066Z,9.8
2023-04-25T11:40:02.186Z,9.8
2023-04-25T11:45:02.445Z,9.3
2023-04-25T11:50:02.578Z,9.3
2023-04-25T11:55:02.680Z,10.8
2023-04-25T12:00:02.821Z,11.6
2023-04-25T12:05:15.944Z,10.1
2023-04-25T12:10:02.441Z,10.8
2023-04-25T12:15:02.719Z,10.8
2023-04-25T12:20:02.871Z,12.3
2023-04-25T12:25:02.973Z,12.5
2023-04-25T12:30:02.114Z,12.5
2023-04-25T12:35:02.288Z,12.6
2023-04-25T12:40:02.511Z,12.6
2023-04-25T12:45:02.696Z,14.1
2023-04-25T12:50:02.931Z,14.1
2023-04-25T12:55:03.090Z,14.8
2023-04-25T13:00:02.304Z,12.8
2023-04-25T13:05:02.435Z,11.8
2023-04-25T13:10:02.559Z,11.3
2023-04-25T13:15:02.757Z,10.8
2023-04-25T13:20:02.964Z,10.3
2023-04-25T13:25:02.178Z,9.6
2023-04-25T13:30:02.273Z,9.5
2023-04-25T13:35:06.058Z,10.5
2023-04-25T13:40:02.393Z,10.6
2023-04-25T13:45:02.528Z,11.1
2023-04-25T13:50:02.641Z,11.1
2023-04-25T13:55:02.804Z,11.6
2023-04-25T14:00:08.848Z,10.5
2023-04-25T14:05:04.748Z,12.5
2023-04-25T14:10:02.889Z,12.6
2023-04-25T14:15:03.068Z,11.3
2023-04-25T14:20:02.205Z,11.3
2023-04-25T14:25:02.341Z,10.6
2023-04-25T14:30:02.552Z,10.8
2023-04-25T14:35:02.674Z,10.6
2023-04-25T14:40:02.871Z,11.6
2023-04-25T14:45:02.097Z,15.3
2023-04-25T14:50:02.332Z,12.5
2023-04-25T14:55:02.514Z,12.5
2023-04-25T15:00:02.699Z,10.8
2023-04-25T15:05:03.110Z,12.8
2023-04-25T15:10:02.367Z,12.8
2023-04-25T15:15:02.528Z,11.1
2023-04-25T15:20:02.717Z,11.1
2023-04-25T15:25:02.854Z,10.6
2023-04-25T15:30:03.000Z,10.6
2023-04-25T15:35:02.186Z,12.3
2023-04-25T15:40:09.799Z,14.3
2023-04-25T15:45:04.588Z,13.6
2023-04-25T15:50:02.708Z,11.8
2023-04-25T15:55:02.840Z,11.8
2023-04-25T16:00:03.014Z,9.8
2023-04-25T16:05:02.372Z,9.3
2023-04-25T16:10:02.655Z,9.3
2023-04-25T16:15:02.792Z,9.8
2023-04-25T16:20:02.893Z,10.6
2023-04-25T16:25:03.031Z,10.6
2023-04-25T16:30:02.208Z,12.3
2023-04-25T16:35:02.416Z,12.3
2023-04-25T16:40:02.515Z,10.3
2023-04-25T16:45:02.670Z,10.1
2023-04-25T16:50:02.807Z,10.1
2023-04-25T16:55:02.934Z,9.5
2023-04-25T17:00:03.060Z,9.5
2023-04-25T17:05:02.285Z,9.5
2023-04-25T17:10:02.458Z,9.5
2023-04-25T17:15:02.661Z,10.8
2023-04-25T17:20:02.890Z,10.8
2023-04-25T17:25:03.047Z,10.3
2023-04-25T17:30:02.243Z,10.3
2023-04-25T17:35:02.378Z,10.6
2023-04-25T17:40:02.532Z,10.6
2023-04-25T17:45:02.774Z,10.6
2023-04-25T17:50:02.875Z,10.6
2023-04-25T17:55:02.344Z,8.6
2023-04-25T18:00:03.971Z,9.1
2023-04-25T18:05:02.946Z,9.1
2023-04-25T18:10:02.128Z,8.1
2023-04-25T18:15:02.278Z,8.1
2023-04-25T18:20:02.487Z,7.4
2023-04-25T18:25:02.909Z,7.4
2023-04-25T18:30:03.111Z,7.0
2023-04-25T18:35:02.302Z,7.0
2023-04-25T18:40:02.526Z,6.5
2023-04-25T18:45:02.764Z,6.5
2023-04-25T18:50:02.899Z,6.4
2023-04-25T18:55:03.029Z,6.4
2023-04-25T19:00:02.225Z,6.4
2023-04-25T19:05:02.415Z,6.4
2023-04-25T19:10:02.582Z,6.0
2023-04-25T19:15:02.764Z,6.0
2023-04-25T19:20:03.083Z,5.9
2023-04-25T19:25:10.480Z,5.9
2023-04-25T19:30:02.224Z,5.4
2023-04-25T19:35:02.320Z,5.4
2023-04-25T19:40:02.457Z,5.3
2023-04-25T19:45:02.673Z,5.3
2023-04-25T19:50:02.812Z,5.0
2023-04-25T19:55:03.115Z,5.0
2023-04-25T20:00:02.210Z,4.5
2023-04-25T20:05:02.421Z,4.5
2023-04-25T20:10:02.606Z,5.0
2023-04-25T20:15:02.714Z,5.0
2023-04-25T20:20:02.934Z,5.0
2023-04-25T20:25:02.056Z,5.0
2023-04-25T20:30:02.217Z,4.8
2023-04-25T20:35:02.329Z,4.8
2023-04-25T20:40:02.471Z,4.8
2023-04-25T20:45:02.590Z,4.8
2023-04-25T20:50:02.748Z,4.5
2023-04-25T20:55:02.928Z,4.5
2023-04-25T21:00:02.311Z,4.5
2023-04-25T21:05:15.330Z,4.5
2023-04-25T21:10:08.371Z,4.5
2023-04-25T21:15:08.462Z,4.5
2023-04-25T21:20:08.491Z,4.5
2023-04-25T21:25:08.972Z,4.5
2023-04-25T21:30:08.128Z,4.5
2023-04-25T21:35:08.195Z,4.5
2023-04-25T21:40:08.243Z,4.3
2023-04-25T21:45:08.298Z,4.3
2023-04-25T21:50:08.345Z,4.0
2023-04-25T21:55:08.421Z,4.0
2023-04-25T22:00:08.470Z,3.7
2023-04-25T22:05:08.543Z,3.7
2023-04-25T22:10:08.566Z,3.7
2023-04-25T22:15:08.634Z,3.7
2023-04-25T22:20:08.650Z,3.2
2023-04-25T22:25:08.661Z,3.2
2023-04-25T22:30:08.684Z,3.0
2023-04-25T22:35:08.794Z,3.0
2023-04-25T22:40:08.819Z,2.7
2023-04-25T22:45:08.922Z,2.7
2023-04-25T22:50:08.978Z,2.5
2023-04-25T22:55:08.069Z,2.5
2023-04-25T23:01:44.936Z,2.4
2023-04-25T23:05:07.974Z,2.4
2023-04-25T23:10:08.007Z,2.4
2023-04-25T23:15:08.108Z,2.4
2023-04-25T23:20:08.203Z,2.5
2023-04-25T23:25:08.292Z,2.5
2023-04-25T23:30:08.361Z,2.2
2023-04-25T23:35:08.469Z,2.2
2023-04-25T23:40:08.706Z,2.2
2023-04-25T23:45:08.767Z,2.2
2023-04-25T23:50:08.844Z,2.0
2023-04-25T23:55:08.887Z,2.0
